Time;durP1;ratioP1;P1;durP2;ratioP2;P2;SDS_P1;SDS_P2;PMS_P1;PMS_P2;Temp;Humidity;BMP_temperature;BMP_pressure;BME280_temperature;BME280_humidity;BME280_pressure;Samples;Min_cycle;Max_cycle;Signal;HPM_P1;HPM_P2
2023/09/22 00:01:41;;;;;;;12.50;3.90;;;;;;;24.55;50.71;97942.36;67925;1276;1016633;-66
2023/09/22 00:04:43;;;;;;;;;;;;;;;24.55;50.63;97940.75;67938;1276;1016393;-66
2023/09/22 00:07:46;;;;;;;16.80;4.20;;;;;;;24.47;50.87;97944.87;67901;1276;1016598;-65
2023/09/22 00:10:49;;;;;;;16.30;3.90;;;;;;;24.51;50.90;97943.86;67912;1276;1017238;-65
2023/09/22 00:13:51;;;;;;;;;;;;;;;24.63;50.52;97939.05;67937;1276;1016451;-65
2023/09/22 00:16:54;;;;;;;15.30;3.90;;;;;;;24.56;50.57;97934.65;67919;1276;1016958;-64
2023/09/22 00:19:57;;;;;;;17.10;4.70;;;;;;;24.54;50.61;97932.84;67872;1276;1016318;-65
2023/09/22 00:22:59;;;;;;;;;;;;;;;24.56;50.68;97930.73;67888;1276;1016511;-64
2023/09/22 00:26:02;;;;;;;14.80;4.20;;;;;;;24.46;50.78;97927.27;67908;1276;1016309;-65
2023/09/22 00:29:05;;;;;;;14.30;4.00;;;;;;;24.44;50.89;97920.95;67864;1276;1016426;-65
2023/09/22 00:32:07;;;;;;;;;;;;;;;24.34;51.15;97920.66;67893;1276;1016106;-65
2023/09/22 00:35:12;;;;;;;18.30;4.40;;;;;;;24.35;50.93;97924.66;67916;1276;1016434;-66
2023/09/22 00:38:14;;;;;;;15.60;4.10;;;;;;;24.38;50.89;97921.97;67899;1276;1016625;-65
2023/09/22 00:41:17;;;;;;;14.20;4.00;;;;;;;24.41;50.83;97920.13;67853;1276;1016359;-66
2023/09/22 00:44:19;;;;;;;;;;;;;;;24.42;50.91;97919.27;67873;1276;1016362;-65
2023/09/22 00:47:21;;;;;;;15.30;4.00;;;;;;;24.45;50.61;97916.16;67896;1276;1016326;-66
2023/09/22 00:50:24;;;;;;;;;;;;;;;24.41;50.59;97913.33;67895;1276;1016414;-65
2023/09/22 00:53:26;;;;;;;14.30;4.10;;;;;;;24.35;50.73;97911.10;67922;1276;1016309;-65
2023/09/22 00:56:29;;;;;;;;;;;;;;;24.34;50.77;97911.05;67892;1276;1016430;-65
2023/09/22 00:59:31;;;;;;;16.70;4.40;;;;;;;24.27;50.90;97904.23;67864;1276;1016172;-65
2023/09/22 01:02:33;;;;;;;;;;;;;;;24.19;51.26;97899.98;67886;1276;1016182;-65
2023/09/22 01:05:36;;;;;;;;;;;;;;;24.23;51.16;97902.88;67930;1276;1016468;-65
2023/09/22 01:08:38;;;;;;;15.10;4.30;;;;;;;24.28;50.97;97904.45;67944;1276;1016374;-66
2023/09/22 01:11:41;;;;;;;;;;;;;;;24.24;50.90;97906.63;67934;1276;1016412;-67
2023/09/22 01:14:44;;;;;;;;;;;;;;;24.28;50.94;97909.32;67861;1276;1016419;-65
2023/09/22 01:17:47;;;;;;;16.00;4.90;;;;;;;24.24;51.10;97908.81;67931;1276;1016348;-68
2023/09/22 01:20:49;;;;;;;16.70;4.40;;;;;;;24.20;51.06;97908.14;67877;1276;1016433;-66
2023/09/22 01:23:52;;;;;;;;;;;;;;;24.21;50.96;97907.00;67902;1276;1016498;-65
2023/09/22 01:26:54;;;;;;;19.70;4.90;;;;;;;24.29;50.78;97909.55;67905;1276;1016317;-70
2023/09/22 01:29:56;;;;;;;;;;;;;;;24.24;50.80;97908.27;67905;1276;1016426;-70
2023/09/22 01:33:02;;;;;;;19.00;4.60;;;;;;;24.17;51.03;97911.77;67907;1276;1016397;-65
2023/09/22 01:36:04;;;;;;;15.80;4.20;;;;;;;24.16;50.91;97906.41;67903;1276;1016208;-68
2023/09/22 01:39:09;;;;;;;15.90;4.40;;;;;;;24.12;51.01;97906.12;67902;1276;1016507;-65
2023/09/22 01:42:12;;;;;;;15.20;4.40;;;;;;;24.15;50.97;97902.45;67876;1276;1016464;-66
2023/09/22 01:45:14;;;;;;;;;;;;;;;24.15;51.05;97897.30;67871;1276;1016218;-65
2023/09/22 01:48:16;;;;;;;16.00;4.20;;;;;;;24.21;50.72;97902.34;67852;1276;1016151;-65
2023/09/22 01:51:19;;;;;;;17.90;4.10;;;;;;;24.21;50.74;97900.23;67885;1276;1018733;-65
2023/09/22 01:54:21;;;;;;;;;;;;;;;24.18;50.75;97896.02;67898;1276;1016434;-65
2023/09/22 01:57:24;;;;;;;15.90;4.10;;;;;;;24.16;50.91;97889.71;67889;1276;1016481;-67
2023/09/22 02:00:26;;;;;;;;;;;;;;;24.13;51.03;97893.30;67882;1276;1016758;-69
2023/09/22 02:03:29;;;;;;;15.00;3.90;;;;;;;24.10;51.16;97883.33;67888;1276;1016304;-65
2023/09/22 02:06:32;;;;;;;15.90;4.00;;;;;;;24.09;51.11;97880.19;67902;1276;1016101;-65
2023/09/22 02:09:35;;;;;;;12.40;3.80;;;;;;;24.07;51.00;97882.73;67862;1276;1016489;-66
2023/09/22 02:12:37;;;;;;;16.80;4.30;;;;;;;24.04;51.17;97890.19;67909;1276;1016324;-66
2023/09/22 02:15:40;;;;;;;16.40;4.50;;;;;;;24.03;51.22;97880.42;67929;1276;1016950;-66
2023/09/22 02:18:42;;;;;;;;;;;;;;;24.01;51.26;97870.65;67900;1276;1016466;-65
2023/09/22 02:21:45;;;;;;;16.60;4.60;;;;;;;24.03;51.22;97879.14;67848;1276;1016459;-65
2023/09/22 02:24:48;;;;;;;17.70;4.70;;;;;;;24.00;51.40;97886.15;67885;1276;1016210;-65
2023/09/22 02:27:51;;;;;;;;;;;;;;;24.07;51.18;97882.36;67899;1276;1016157;-64
2023/09/22 02:30:53;;;;;;;18.60;4.80;;;;;;;24.09;51.36;97880.39;67894;1276;1016409;-65
2023/09/22 02:33:56;;;;;;;13.40;3.90;;;;;;;24.07;51.30;97870.27;67904;1276;1016293;-64
2023/09/22 02:36:58;;;;;;;;;;;;;;;24.06;51.36;97862.42;67906;1276;1016491;-64
2023/09/22 02:40:02;;;;;;;13.90;4.40;;;;;;;24.12;51.17;97849.20;67845;1276;1015712;-65
2023/09/22 02:43:06;;;;;;;14.00;3.90;;;;;;;24.11;51.38;97838.29;67849;1276;1016121;-64
2023/09/22 02:46:08;;;;;;;14.80;4.10;;;;;;;24.12;51.20;97834.66;67824;1276;1016764;-66
2023/09/22 02:49:11;;;;;;;;;;;;;;;24.15;51.44;97832.27;67845;1276;1018344;-64
2023/09/22 02:52:14;;;;;;;15.90;4.40;;;;;;;24.21;51.22;97837.05;67835;1276;1016488;-65
2023/09/22 02:55:16;;;;;;;14.80;3.70;;;;;;;24.15;51.41;97835.69;67913;1276;1016526;-66
2023/09/22 02:58:19;;;;;;;13.80;3.70;;;;;;;24.20;51.21;97829.84;67875;1276;1016223;-65
2023/09/22 03:01:21;;;;;;;;;;;;;;;24.29;51.05;97833.64;67857;1276;1017010;-65
2023/09/22 03:04:24;;;;;;;13.60;3.80;;;;;;;24.37;51.05;97825.92;67863;1276;1016220;-67
2023/09/22 03:07:26;;;;;;;;;;;;;;;24.46;50.84;97823.91;67898;1276;1016383;-65
2023/09/22 03:10:29;;;;;;;14.30;3.90;;;;;;;24.64;50.39;97819.92;67887;1276;1018701;-65
2023/09/22 03:13:31;;;;;;;11.60;3.90;;;;;;;24.52;50.52;97814.25;67881;1276;1016459;-65
2023/09/22 03:16:34;;;;;;;;;;;;;;;24.49;50.65;97816.11;67892;1276;1016356;-67
2023/09/22 03:19:36;;;;;;;13.70;3.80;;;;;;;24.49;50.69;97813.97;67882;1276;1016431;-66
2023/09/22 03:22:39;;;;;;;;;;;;;;;24.48;50.72;97815.57;67858;1276;1016427;-66
2023/09/22 03:25:43;;;;;;;14.50;4.00;;;;;;;24.41;50.90;97813.94;67845;1276;1016108;-66
2023/09/22 03:28:46;;;;;;;12.90;3.90;;;;;;;24.39;50.84;97812.45;67855;1276;1016416;-65
2023/09/22 03:31:48;;;;;;;11.70;3.80;;;;;;;24.30;51.09;97812.00;67905;1276;1016410;-65
2023/09/22 03:34:51;;;;;;;10.70;3.40;;;;;;;24.28;51.15;97814.10;67891;1276;1016407;-65
2023/09/22 03:37:55;;;;;;;;;;;;;;;24.39;50.99;97821.34;67895;1276;1016059;-66
2023/09/22 03:41:00;;;;;;;16.90;4.00;;;;;;;24.34;51.15;97827.05;67884;1276;1016170;-65
2023/09/22 03:44:04;;;;;;;15.40;4.70;;;;;;;24.34;51.02;97827.95;67866;1276;1016490;-66
2023/09/22 03:47:07;;;;;;;20.10;4.10;;;;;;;24.34;50.98;97835.08;67875;1276;1016395;-65
2023/09/22 03:50:09;;;;;;;;;;;;;;;24.31;51.03;97838.54;67873;1276;1016478;-66
2023/09/22 03:53:11;;;;;;;16.80;4.30;;;;;;;24.38;50.91;97838.45;67876;1276;1016459;-66
2023/09/22 03:56:14;;;;;;;;;;;;;;;24.34;50.97;97839.95;67889;1276;1016395;-68
2023/09/22 03:59:16;;;;;;;16.20;4.30;;;;;;;24.39;51.02;97840.20;67892;1276;1016085;-67
2023/09/22 04:02:20;;;;;;;;;;;;;;;24.43;51.00;97848.08;67919;1276;1016672;-69
2023/09/22 04:05:22;;;;;;;15.20;4.50;;;;;;;24.48;50.92;97846.66;67882;1276;1019665;-66
2023/09/22 04:08:25;;;;;;;19.60;4.70;;;;;;;24.34;51.10;97853.46;67857;1276;1016900;-64
2023/09/22 04:11:27;;;;;;;;;;;;;;;24.33;51.23;97858.04;67870;1276;1016244;-66
2023/09/22 04:14:30;;;;;;;15.60;4.30;;;;;;;24.28;51.37;97853.42;67847;1276;1016374;-64
2023/09/22 04:17:32;;;;;;;;;;;;;;;24.25;51.44;97856.14;67878;1276;1016762;-68
2023/09/22 04:20:37;;;;;;;19.10;4.90;;;;;;;24.27;51.41;97859.77;67878;1276;1020068;-69
2023/09/22 04:23:45;;;;;;;16.00;4.40;;;;;;;24.50;51.05;97861.54;67851;1276;1015522;-66
2023/09/22 04:26:49;;;;;;;16.70;4.70;;;;;;;24.50;50.89;97860.77;67835;1276;1016072;-67
2023/09/22 04:29:51;;;;;;;18.30;4.70;;;;;;;24.67;50.68;97858.81;67850;1276;1016446;-67
2023/09/22 04:32:54;;;;;;;;;;;;;;;24.64;50.58;97860.24;67867;1276;1016490;-66
2023/09/22 04:35:57;;;;;;;15.80;4.60;;;;;;;24.60;50.77;97864.49;67893;1276;1016512;-65
2023/09/22 04:39:00;;;;;;;;;;;;;;;24.58;50.74;97864.05;67888;1276;1016888;-64
2023/09/22 04:42:02;;;;;;;19.30;4.50;;;;;;;24.57;51.09;97856.67;67872;1276;1016530;-67
2023/09/22 04:45:05;;;;;;;17.10;5.20;;;;;;;24.58;51.08;97850.33;67903;1276;1016229;-65
2023/09/22 04:48:07;;;;;;;;;;;;;;;24.60;51.18;97850.79;67881;1276;1016294;-67
2023/09/22 04:51:09;;;;;;;18.90;4.80;;;;;;;24.61;50.99;97848.85;67862;1276;1017179;-69
2023/09/22 04:54:12;;;;;;;;;;;;;;;24.70;50.84;97856.86;67856;1276;1016249;-67
2023/09/22 04:57:14;;;;;;;18.90;5.40;;;;;;;24.82;50.78;97849.70;67866;1276;1016468;-69
2023/09/22 05:00:21;;;;;;;17.10;5.00;;;;;;;24.95;50.66;97846.80;67910;1276;1016378;-69
2023/09/22 05:03:24;;;;;;;16.90;4.80;;;;;;;24.89;50.84;97840.21;67843;1276;1016431;-66
2023/09/22 05:06:28;;;;;;;17.00;4.70;;;;;;;24.92;50.88;97841.64;67867;1276;1016519;-65
2023/09/22 05:09:30;;;;;;;15.50;4.40;;;;;;;24.88;51.12;97841.41;67909;1276;1016516;-66
2023/09/22 05:12:33;;;;;;;;;;;;;;;25.06;50.78;97839.71;67917;1276;1016540;-65
2023/09/22 05:15:35;;;;;;;18.30;4.40;;;;;;;25.11;50.90;97832.39;67846;1276;1016256;-64
2023/09/22 05:18:38;;;;;;;19.10;4.90;;;;;;;25.12;50.89;97827.51;67848;1276;1016494;-64
2023/09/22 05:21:40;;;;;;;16.60;4.60;;;;;;;25.20;50.89;97817.55;67912;1276;1016424;-67
2023/09/22 05:24:44;;;;;;;;;;;;;;;25.40;50.50;97815.70;67908;1276;1016344;-65
2023/09/22 05:27:47;;;;;;;16.90;4.60;;;;;;;25.57;50.18;97819.47;67866;1276;1016305;-66
2023/09/22 05:30:49;;;;;;;16.70;4.50;;;;;;;25.70;49.98;97826.14;67850;1276;1016246;-65
2023/09/22 05:33:52;;;;;;;;;;;;;;;25.73;50.03;97840.36;67842;1276;1016651;-65
2023/09/22 05:36:55;;;;;;;19.20;4.70;;;;;;;25.88;49.78;97843.84;67886;1276;1016533;-70
2023/09/22 05:39:57;;;;;;;;;;;;;;;25.95;49.64;97834.41;67918;1276;1016613;-64
2023/09/22 05:42:59;;;;;;;19.10;5.30;;;;;;;26.16;49.49;97828.63;67867;1276;1016442;-67
2023/09/22 05:46:02;;;;;;;;;;;;;;;26.45;49.15;97829.52;67845;1276;1016333;-65
2023/09/22 05:49:06;;;;;;;17.50;4.40;;;;;;;26.68;48.68;97826.80;67882;1276;1017162;-66
2023/09/22 05:52:09;;;;;;;18.10;4.80;;;;;;;26.87;48.63;97828.79;67894;1276;1016453;-64
2023/09/22 05:55:12;;;;;;;17.40;4.40;;;;;;;27.03;48.39;97830.76;67866;1276;1016560;-66
2023/09/22 05:58:14;;;;;;;15.80;4.40;;;;;;;27.07;48.39;97835.19;67846;1276;1016483;-64
2023/09/22 06:01:16;;;;;;;18.80;4.60;;;;;;;27.07;48.40;97849.76;67871;1276;1016343;-65
2023/09/22 06:04:19;;;;;;;18.40;4.90;;;;;;;27.31;48.00;97858.15;67868;1276;1018853;-65
2023/09/22 06:07:22;;;;;;;18.90;5.30;;;;;;;27.47;48.00;97865.41;67832;1276;1016251;-63
2023/09/22 06:10:25;;;;;;;15.50;4.70;;;;;;;27.85;47.76;97864.69;67861;1276;1016451;-66
2023/09/22 06:13:27;;;;;;;19.90;5.00;;;;;;;28.14;47.00;97857.38;67893;1276;1018392;-64
2023/09/22 06:16:30;;;;;;;17.30;4.90;;;;;;;28.24;47.05;97847.93;67868;1276;1016288;-64
2023/09/22 06:19:33;;;;;;;18.80;4.50;;;;;;;28.40;46.64;97840.96;67896;1276;1016264;-67
2023/09/22 06:22:35;;;;;;;18.00;4.90;;;;;;;28.43;46.04;97837.16;67890;1276;1016138;-63
2023/09/22 06:25:37;;;;;;;16.40;4.70;;;;;;;28.45;46.21;97835.86;67864;1276;1016009;-65
2023/09/22 06:28:41;;;;;;;17.40;5.00;;;;;;;28.30;46.25;97833.89;67828;1276;1016405;-66
2023/09/22 06:31:43;;;;;;;18.00;4.50;;;;;;;28.37;46.10;97833.52;67912;1276;1019674;-65
2023/09/22 06:34:46;;;;;;;16.50;4.90;;;;;;;28.35;46.38;97832.88;67866;1276;1016340;-67
2023/09/22 06:37:49;;;;;;;15.50;4.60;;;;;;;28.47;45.99;97834.73;67847;1276;1016196;-65
2023/09/22 06:40:55;;;;;;;18.00;4.90;;;;;;;28.47;45.95;97839.31;67901;1276;1016437;-69
2023/09/22 06:43:57;;;;;;;18.30;5.00;;;;;;;28.63;45.70;97839.17;67896;1276;1016261;-69
2023/09/22 06:47:00;;;;;;;16.10;4.70;;;;;;;28.85;45.79;97838.95;67889;1276;1016159;-67
2023/09/22 06:50:06;;;;;;;20.00;5.40;;;;;;;28.96;45.55;97839.95;67837;1276;1016444;-64
2023/09/22 06:53:08;;;;;;;16.10;4.60;;;;;;;29.02;45.65;97843.07;67861;1276;1016407;-65
2023/09/22 06:56:11;;;;;;;18.20;4.80;;;;;;;29.06;45.47;97846.05;67847;1276;1016768;-64
2023/09/22 06:59:14;;;;;;;19.40;5.40;;;;;;;29.02;45.57;97845.45;67908;1276;1016357;-64
2023/09/22 07:02:16;;;;;;;18.20;5.20;;;;;;;29.10;45.56;97851.77;67914;1276;1016835;-65
2023/09/22 07:05:19;;;;;;;19.90;5.40;;;;;;;29.19;45.46;97856.48;67864;1276;1018542;-66
2023/09/22 07:08:22;;;;;;;16.60;4.90;;;;;;;29.18;45.37;97864.18;67879;1276;1016351;-65
2023/09/22 07:11:24;;;;;;;19.30;5.40;;;;;;;29.34;45.28;97862.80;67858;1276;1016408;-66
2023/09/22 07:14:27;;;;;;;18.50;5.80;;;;;;;29.47;45.04;97862.20;67860;1276;1016224;-65
2023/09/22 07:17:29;;;;;;;18.00;5.10;;;;;;;29.59;45.13;97864.29;67858;1276;1016242;-64
2023/09/22 07:20:32;;;;;;;20.50;5.00;;;;;;;29.83;44.90;97865.95;67900;1276;1015712;-67
2023/09/22 07:23:34;;;;;;;18.80;5.40;;;;;;;29.95;44.57;97870.39;67893;1276;1016398;-64
2023/09/22 07:26:37;;;;;;;20.30;5.60;;;;;;;30.19;44.21;97879.56;67846;1276;1016118;-67
2023/09/22 07:29:40;;;;;;;18.00;5.10;;;;;;;30.36;44.19;97886.36;67882;1276;1016264;-65
2023/09/22 07:32:42;;;;;;;17.40;5.60;;;;;;;30.48;43.40;97886.80;67905;1276;1016476;-64
2023/09/22 07:35:45;;;;;;;17.60;5.40;;;;;;;30.54;43.36;97890.09;67809;1276;1016140;-64
2023/09/22 07:38:47;;;;;;;20.50;5.60;;;;;;;30.69;43.71;97887.89;67838;1276;1016440;-64
2023/09/22 07:41:49;;;;;;;19.80;5.60;;;;;;;30.83;43.40;97883.01;67896;1276;1019340;-67
2023/09/22 07:44:52;;;;;;;19.70;5.50;;;;;;;30.97;43.43;97885.17;67875;1276;1016196;-68
2023/09/22 07:47:54;;;;;;;22.40;5.70;;;;;;;31.28;43.18;97890.42;67896;1276;1016549;-65
2023/09/22 07:50:57;;;;;;;22.00;5.90;;;;;;;31.25;42.82;97899.61;67842;1276;1016492;-68
2023/09/22 07:54:00;;;;;;;22.40;5.90;;;;;;;31.41;42.81;97899.10;67898;1276;1016375;-64
2023/09/22 07:57:02;;;;;;;16.10;5.00;;;;;;;31.56;42.90;97901.86;67869;1276;1016120;-65
2023/09/22 08:00:09;;;;;;;20.30;5.30;;;;;;;31.84;42.38;97900.70;67876;1276;1016512;-65
2023/09/22 08:03:12;;;;;;;17.80;5.50;;;;;;;31.91;42.23;97898.31;67905;1276;1016353;-67
2023/09/22 08:06:14;;;;;;;19.90;5.50;;;;;;;32.08;41.92;97893.11;67847;1276;1017130;-66
2023/09/22 08:09:17;;;;;;;20.10;5.60;;;;;;;32.19;41.64;97885.05;67873;1276;1016454;-66
2023/09/22 08:12:20;;;;;;;19.20;6.10;;;;;;;32.23;41.11;97882.75;67891;1276;1016224;-66
2023/09/22 08:15:23;;;;;;;19.90;6.10;;;;;;;32.38;41.26;97879.19;67861;1276;1016469;-65
2023/09/22 08:18:26;;;;;;;19.80;5.50;;;;;;;32.69;40.81;97877.55;67849;1276;1016824;-64
2023/09/22 08:21:28;;;;;;;18.50;4.90;;;;;;;32.91;40.52;97873.14;67894;1276;1016123;-66
2023/09/22 08:24:31;;;;;;;20.00;5.50;;;;;;;32.91;40.24;97875.92;67854;1276;1016338;-65
2023/09/22 08:27:33;;;;;;;19.80;5.30;;;;;;;33.00;40.29;97877.11;67852;1276;1016378;-67
2023/09/22 08:30:37;;;;;;;17.80;4.90;;;;;;;33.23;39.77;97878.35;67877;1276;1016454;-65
2023/09/22 08:33:39;;;;;;;18.60;5.40;;;;;;;33.30;39.94;97880.60;67873;1276;1016842;-64
2023/09/22 08:36:43;;;;;;;21.30;6.30;;;;;;;33.38;39.90;97877.92;67878;1276;1016854;-64
2023/09/22 08:39:46;;;;;;;21.80;6.00;;;;;;;33.45;39.61;97879.05;67884;1276;1016436;-65
2023/09/22 08:42:51;;;;;;;20.20;5.80;;;;;;;33.39;39.27;97876.13;67875;1276;1016565;-69
2023/09/22 08:45:53;;;;;;;19.50;5.90;;;;;;;33.61;39.73;97873.23;67876;1276;1016415;-67
2023/09/22 08:48:56;;;;;;;25.30;5.70;;;;;;;33.90;39.52;97874.96;67894;1276;1016394;-65
2023/09/22 08:52:00;;;;;;;22.10;6.10;;;;;;;33.95;38.78;97870.19;67891;1276;1016462;-66
2023/09/22 08:55:04;;;;;;;19.70;5.80;;;;;;;33.88;38.81;97872.68;67894;1276;1015781;-65
2023/09/22 08:58:06;;;;;;;22.60;6.50;;;;;;;33.84;38.90;97869.50;67875;1276;1016438;-67
2023/09/22 09:01:10;;;;;;;20.10;5.90;;;;;;;33.78;39.08;97874.59;67852;1276;1016143;-69
2023/09/22 09:04:13;;;;;;;21.80;5.90;;;;;;;33.77;39.41;97877.38;67869;1276;1016827;-67
2023/09/22 09:07:15;;;;;;;21.60;5.90;;;;;;;33.80;38.96;97873.42;67852;1276;1016234;-69
2023/09/22 09:10:17;;;;;;;18.80;6.00;;;;;;;33.64;38.66;97870.64;67770;1276;1140989;-66
2023/09/22 09:13:23;;;;;;;19.60;5.40;;;;;;;33.47;38.92;97869.98;67884;1276;1016409;-65
2023/09/22 09:16:26;;;;;;;20.60;5.10;;;;;;;33.46;39.11;97863.77;67891;1276;1016714;-66
2023/09/22 09:19:30;;;;;;;17.80;5.50;;;;;;;33.79;38.81;97859.38;67875;1276;1016455;-66
2023/09/22 09:22:33;;;;;;;17.30;4.80;;;;;;;34.06;38.49;97861.94;67860;1276;1016262;-66
2023/09/22 09:25:35;;;;;;;20.60;5.50;;;;;;;34.34;38.48;97865.99;67830;1276;1016459;-67
2023/09/22 09:28:38;;;;;;;19.00;5.60;;;;;;;34.79;38.05;97863.26;67878;1276;1016378;-67
2023/09/22 09:31:41;;;;;;;20.60;6.30;;;;;;;35.19;37.75;97856.96;67900;1276;1017106;-65
2023/09/22 09:34:43;;;;;;;20.60;6.30;;;;;;;35.33;37.51;97856.66;67844;1276;1016512;-65
2023/09/22 09:37:46;;;;;;;22.00;5.90;;;;;;;35.54;37.20;97857.33;67834;1276;1017334;-66
2023/09/22 09:40:49;;;;;;;22.30;6.10;;;;;;;35.59;36.89;97855.07;67853;1276;1016067;-67
2023/09/22 09:43:52;;;;;;;21.50;6.10;;;;;;;36.01;36.97;97845.95;67904;1276;1016597;-64
2023/09/22 09:46:55;;;;;;;22.20;5.90;;;;;;;36.13;36.36;97850.73;67862;1276;1016412;-65
2023/09/22 09:49:57;;;;;;;18.80;5.40;;;;;;;36.25;36.54;97852.02;67847;1276;1017429;-64
2023/09/22 09:53:00;;;;;;;17.60;5.10;;;;;;;36.39;35.52;97853.94;67871;1276;1017577;-65
2023/09/22 09:56:03;;;;;;;16.60;5.10;;;;;;;36.69;35.29;97852.08;67909;1276;1016850;-64
2023/09/22 09:59:05;;;;;;;18.10;5.00;;;;;;;36.96;35.11;97848.27;67822;1276;1016403;-64
2023/09/22 10:02:08;;;;;;;19.10;5.20;;;;;;;36.98;34.62;97852.51;67858;1276;1016418;-64
2023/09/22 10:05:11;;;;;;;19.40;4.90;;;;;;;36.84;34.70;97852.05;67854;1276;1016621;-65
2023/09/22 10:08:14;;;;;;;18.40;4.60;;;;;;;36.53;34.61;97846.48;67850;1276;1016421;-65
2023/09/22 10:11:16;;;;;;;17.00;4.50;;;;;;;36.07;34.12;97844.99;67889;1276;1016406;-65
2023/09/22 10:14:19;;;;;;;15.30;4.00;;;;;;;35.85;33.99;97854.62;67875;1276;1016564;-64
2023/09/22 10:17:22;;;;;;;19.90;4.90;;;;;;;35.50;33.96;97854.52;67866;1276;1016126;-67
2023/09/22 10:20:25;;;;;;;15.60;4.40;;;;;;;35.27;34.19;97861.15;67894;1276;1016546;-64
2023/09/22 10:23:27;;;;;;;15.80;4.20;;;;;;;34.97;34.24;97863.25;67845;1276;1016062;-64
2023/09/22 10:26:30;;;;;;;15.30;4.10;;;;;;;34.90;34.31;97865.65;67887;1276;1016352;-65
2023/09/22 10:29:33;;;;;;;18.90;4.70;;;;;;;34.76;34.73;97864.83;67883;1276;1016501;-64
2023/09/22 10:32:35;;;;;;;18.30;4.60;;;;;;;34.74;34.88;97867.39;67834;1276;1016113;-64
2023/09/22 10:35:38;;;;;;;17.10;4.50;;;;;;;34.67;34.85;97869.05;67837;1276;1016519;-65
2023/09/22 10:38:40;;;;;;;17.50;4.50;;;;;;;34.65;34.91;97869.25;67895;1276;1015893;-65
2023/09/22 10:41:43;;;;;;;17.50;4.30;;;;;;;34.67;35.04;97865.52;67898;1276;1016730;-64
2023/09/22 10:44:45;;;;;;;16.50;4.20;;;;;;;34.54;35.05;97867.31;67871;1276;1016211;-64
2023/09/22 10:47:49;;;;;;;15.00;4.50;;;;;;;34.54;34.58;97864.21;67848;1276;1016171;-65
2023/09/22 10:50:52;;;;;;;15.90;4.30;;;;;;;34.80;34.60;97864.59;67853;1276;1016403;-64
2023/09/22 10:53:54;;;;;;;16.90;4.30;;;;;;;34.99;34.77;97859.36;67871;1276;1019382;-65
2023/09/22 10:56:57;;;;;;;19.30;4.80;;;;;;;35.00;34.55;97857.51;67907;1276;1016339;-67
2023/09/22 11:00:00;;;;;;;14.10;4.00;;;;;;;34.91;34.26;97858.85;67837;1276;1016509;-65
2023/09/22 11:03:02;;;;;;;19.40;4.30;;;;;;;34.59;34.33;97864.42;67893;1276;1016390;-66
2023/09/22 11:06:06;;;;;;;17.70;4.20;;;;;;;34.53;34.74;97860.07;67892;1276;1016504;-65
2023/09/22 11:09:11;;;;;;;17.40;4.40;;;;;;;34.74;34.78;97859.52;67881;1276;1016361;-65
2023/09/22 11:12:13;;;;;;;22.70;4.20;;;;;;;35.25;34.60;97854.33;67847;1276;1016016;-65
2023/09/22 11:15:16;;;;;;;13.60;3.70;;;;;;;35.54;33.98;97851.94;67843;1276;1016367;-66
2023/09/22 11:18:18;;;;;;;18.50;4.50;;;;;;;35.49;33.94;97854.05;67845;1276;1016399;-65
2023/09/22 11:21:20;;;;;;;18.20;3.90;;;;;;;35.52;34.13;97859.95;67889;1276;1016353;-66
2023/09/22 11:24:24;;;;;;;17.30;4.20;;;;;;;35.91;33.82;97855.95;67885;1276;1016333;-68
2023/09/22 11:27:26;;;;;;;19.00;4.40;;;;;;;35.97;33.50;97849.35;67870;1276;1016371;-68
2023/09/22 11:30:29;;;;;;;15.70;4.20;;;;;;;35.69;33.35;97854.20;67860;1276;1016375;-69
2023/09/22 11:33:32;;;;;;;18.70;4.00;;;;;;;35.27;33.69;97858.15;67857;1276;1016435;-65
2023/09/22 11:36:34;;;;;;;15.50;4.40;;;;;;;35.01;33.71;97863.51;67848;1276;1016176;-64
2023/09/22 11:39:36;;;;;;;14.50;3.80;;;;;;;34.90;34.08;97857.27;67891;1276;1016504;-64
2023/09/22 11:42:39;;;;;;;15.70;4.10;;;;;;;34.87;34.33;97848.95;67881;1276;1016428;-65
2023/09/22 11:45:41;;;;;;;19.40;4.50;;;;;;;35.21;34.36;97848.20;67828;1276;1016449;-67
2023/09/22 11:48:44;;;;;;;18.40;4.50;;;;;;;35.44;33.97;97844.84;67849;1276;1016209;-65
2023/09/22 11:51:47;;;;;;;17.50;3.80;;;;;;;35.49;33.94;97841.82;67873;1276;1016227;-66
2023/09/22 11:54:50;;;;;;;16.60;3.70;;;;;;;35.72;33.76;97838.64;67862;1276;1016605;-65
2023/09/22 11:57:53;;;;;;;15.80;3.80;;;;;;;36.07;33.19;97846.89;67889;1276;1016515;-65
2023/09/22 12:00:55;;;;;;;15.30;3.90;;;;;;;36.11;33.28;97852.27;67890;1276;1016849;-66
2023/09/22 12:03:58;;;;;;;14.70;3.90;;;;;;;35.98;33.24;97851.38;67831;1276;1016419;-67
2023/09/22 12:07:01;;;;;;;17.60;3.80;;;;;;;35.88;33.47;97854.17;67827;1276;1016422;-68
2023/09/22 12:10:04;;;;;;;18.00;4.20;;;;;;;35.62;33.38;97848.35;67904;1276;1016472;-68
2023/09/22 12:13:06;;;;;;;19.40;4.20;;;;;;;35.57;33.63;97850.51;67833;1276;1016236;-65
2023/09/22 12:16:08;;;;;;;18.40;4.10;;;;;;;35.56;33.79;97852.85;67896;1276;1016737;-68
2023/09/22 12:19:13;;;;;;;17.10;4.30;;;;;;;35.51;33.50;97852.55;67891;1276;1016290;-67
2023/09/22 12:22:15;;;;;;;18.80;3.80;;;;;;;35.33;33.54;97859.66;67848;1276;1016173;-65
2023/09/22 12:25:18;;;;;;;17.40;3.70;;;;;;;35.44;33.32;97859.01;67866;1276;1016578;-66
2023/09/22 12:28:20;;;;;;;15.30;3.30;;;;;;;35.86;33.50;97849.81;67860;1276;1016356;-67
2023/09/22 12:31:23;;;;;;;11.00;3.00;;;;;;;36.39;32.73;97848.85;67869;1276;1016420;-67
2023/09/22 12:34:25;;;;;;;13.80;2.90;;;;;;;36.50;31.55;97851.70;67906;1276;1016459;-68
2023/09/22 12:37:28;;;;;;;13.90;3.30;;;;;;;36.42;31.59;97852.66;67878;1276;1016291;-68
2023/09/22 12:40:30;;;;;;;14.40;3.20;;;;;;;36.33;31.67;97856.00;67864;1276;1016267;-68
2023/09/22 12:43:33;;;;;;;19.90;3.40;;;;;;;36.28;31.51;97858.03;67878;1276;1016496;-66
2023/09/22 12:46:35;;;;;;;20.00;3.30;;;;;;;36.45;31.55;97849.63;67906;1276;1016495;-65
2023/09/22 12:49:38;;;;;;;10.40;2.60;;;;;;;36.55;31.24;97850.02;67883;1276;1016355;-67
2023/09/22 12:52:42;;;;;;;14.40;3.20;;;;;;;36.20;31.24;97852.80;67902;1276;1019028;-67
2023/09/22 12:55:44;;;;;;;15.00;2.90;;;;;;;35.94;31.50;97852.16;67869;1276;1015794;-68
2023/09/22 12:58:46;;;;;;;20.70;3.20;;;;;;;35.79;32.00;97850.55;67849;1276;1016753;-65
2023/09/22 13:01:49;;;;;;;16.80;3.40;;;;;;;36.31;31.96;97845.84;67883;1276;1016753;-64
2023/09/22 13:04:51;;;;;;;17.30;3.80;;;;;;;36.72;31.99;97847.73;67871;1276;1016417;-64
2023/09/22 13:07:54;;;;;;;14.20;2.90;;;;;;;36.76;31.49;97845.40;67898;1276;1016851;-65
2023/09/22 13:10:56;;;;;;;12.70;2.90;;;;;;;36.25;31.23;97851.95;67863;1276;1016156;-65
2023/09/22 13:13:58;;;;;;;12.40;3.10;;;;;;;35.88;31.78;97856.23;67848;1276;1016297;-66
2023/09/22 13:17:01;;;;;;;12.10;2.80;;;;;;;36.09;31.84;97852.52;67874;1276;1016078;-64
2023/09/22 13:20:06;;;;;;;14.40;3.00;;;;;;;36.20;31.75;97855.10;67906;1276;1016411;-66
2023/09/22 13:23:09;;;;;;;14.90;3.00;;;;;;;36.57;31.74;97852.08;67854;1276;1016398;-65
2023/09/22 13:26:11;;;;;;;11.70;2.70;;;;;;;36.77;31.46;97848.61;67884;1276;1016543;-66
2023/09/22 13:29:13;;;;;;;10.40;2.80;;;;;;;36.91;30.77;97846.37;67897;1276;1016990;-65
2023/09/22 13:32:16;;;;;;;10.90;2.60;;;;;;;36.93;30.89;97848.86;67875;1276;1016301;-67
2023/09/22 13:35:18;;;;;;;15.40;3.00;;;;;;;36.84;30.62;97851.50;67832;1276;1016914;-67
2023/09/22 13:38:21;;;;;;;13.00;2.90;;;;;;;36.32;30.70;97854.52;67872;1276;1016248;-65
2023/09/22 13:41:24;;;;;;;15.90;3.10;;;;;;;35.87;30.90;97855.42;67922;1276;1016813;-65
2023/09/22 13:44:26;;;;;;;19.50;3.10;;;;;;;35.40;31.67;97847.46;67866;1276;1018778;-68
2023/09/22 13:47:29;;;;;;;13.70;2.70;;;;;;;35.12;32.06;97852.58;67855;1276;1016456;-64
2023/09/22 13:50:31;;;;;;;15.00;3.10;;;;;;;34.90;32.45;97855.36;67897;1276;1016456;-67
2023/09/22 13:53:34;;;;;;;12.30;3.10;;;;;;;34.95;32.78;97855.23;67921;1276;1016142;-66
2023/09/22 13:56:37;;;;;;;17.10;3.20;;;;;;;34.99;32.70;97854.80;67861;1276;1016120;-67
2023/09/22 13:59:39;;;;;;;12.30;2.60;;;;;;;34.96;32.95;97859.91;67891;1276;1016252;-65
2023/09/22 14:02:42;;;;;;;12.50;3.40;;;;;;;34.89;32.89;97865.98;67873;1276;1019949;-65